sensor_id;sensor_type;location;lat;lon;timestamp;P1;durP1;ratioP1;P2;durP2;ratioP2
18789;SDS011;9523;42.650;23.386;2023-04-21T00:00:51;19.03;;;12.90;;
18789;SDS011;9523;42.650;23.386;2023-04-21T00:03:18;19.27;;;13.47;;
18789;SDS011;9523;42.650;23.386;2023-04-21T00:05:47;18.60;;;13.93;;
18789;SDS011;9523;42.650;23.386;2023-04-21T00:08:15;18.37;;;13.27;;
18789;SDS011;9523;42.650;23.386;2023-04-21T00:10:43;18.83;;;13.37;;
18789;SDS011;9523;42.650;23.386;2023-04-21T00:13:12;18.00;;;13.00;;
18789;SDS011;9523;42.650;23.386;2023-04-21T00:15:39;18.10;;;13.57;;
18789;SDS011;9523;42.650;23.386;2023-04-21T00:18:06;19.73;;;12.90;;
18789;SDS011;9523;42.650;23.386;2023-04-21T00:20:34;19.73;;;13.30;;
18789;SDS011;9523;42.650;23.386;2023-04-21T00:23:01;18.97;;;13.10;;
18789;SDS011;9523;42.650;23.386;2023-04-21T00:25:28;18.23;;;13.47;;
18789;SDS011;9523;42.650;23.386;2023-04-21T00:27:55;18.33;;;13.13;;
18789;SDS011;9523;42.650;23.386;2023-04-21T00:30:23;18.97;;;12.80;;
18789;SDS011;9523;42.650;23.386;2023-04-21T00:32:50;20.83;;;13.80;;
18789;SDS011;9523;42.650;23.386;2023-04-21T00:35:17;16.70;;;12.57;;
18789;SDS011;9523;42.650;23.386;2023-04-21T00:37:44;20.10;;;13.90;;
18789;SDS011;9523;42.650;23.386;2023-04-21T00:40:11;18.43;;;13.60;;
18789;SDS011;9523;42.650;23.386;2023-04-21T00:42:38;22.03;;;13.67;;
18789;SDS011;9523;42.650;23.386;2023-04-21T00:45:05;20.17;;;13.13;;
18789;SDS011;9523;42.650;23.386;2023-04-21T00:47:34;19.23;;;13.50;;
18789;SDS011;9523;42.650;23.386;2023-04-21T00:50:02;25.50;;;14.70;;
18789;SDS011;9523;42.650;23.386;2023-04-21T00:52:29;21.40;;;14.57;;
18789;SDS011;9523;42.650;23.386;2023-04-21T00:54:56;23.97;;;14.07;;
18789;SDS011;9523;42.650;23.386;2023-04-21T00:57:24;23.90;;;14.37;;
18789;SDS011;9523;42.650;23.386;2023-04-21T00:59:52;20.73;;;14.63;;
18789;SDS011;9523;42.650;23.386;2023-04-21T01:02:19;21.67;;;14.80;;
18789;SDS011;9523;42.650;23.386;2023-04-21T01:04:48;21.27;;;14.97;;
18789;SDS011;9523;42.650;23.386;2023-04-21T01:07:15;19.50;;;15.80;;
18789;SDS011;9523;42.650;23.386;2023-04-21T01:09:43;24.20;;;15.83;;
18789;SDS011;9523;42.650;23.386;2023-04-21T01:12:10;26.73;;;15.70;;
18789;SDS011;9523;42.650;23.386;2023-04-21T01:14:38;25.27;;;16.73;;
18789;SDS011;9523;42.650;23.386;2023-04-21T01:17:06;26.60;;;17.63;;
18789;SDS011;9523;42.650;23.386;2023-04-21T01:19:34;28.50;;;18.27;;
18789;SDS011;9523;42.650;23.386;2023-04-21T01:22:06;26.23;;;17.67;;
18789;SDS011;9523;42.650;23.386;2023-04-21T01:24:35;26.17;;;18.60;;
18789;SDS011;9523;42.650;23.386;2023-04-21T01:27:07;27.53;;;18.87;;
18789;SDS011;9523;42.650;23.386;2023-04-21T01:29:35;22.97;;;16.63;;
18789;SDS011;9523;42.650;23.386;2023-04-21T01:32:06;20.47;;;11.63;;
18789;SDS011;9523;42.650;23.386;2023-04-21T01:34:35;17.47;;;12.23;;
18789;SDS011;9523;42.650;23.386;2023-04-21T01:37:02;24.53;;;15.30;;
18789;SDS011;9523;42.650;23.386;2023-04-21T01:39:30;18.43;;;14.40;;
18789;SDS011;9523;42.650;23.386;2023-04-21T01:41:57;20.43;;;14.43;;
18789;SDS011;9523;42.650;23.386;2023-04-21T01:44:24;19.83;;;13.93;;
18789;SDS011;9523;42.650;23.386;2023-04-21T01:46:51;21.70;;;15.20;;
18789;SDS011;9523;42.650;23.386;2023-04-21T01:49:18;13.97;;;11.20;;
18789;SDS011;9523;42.650;23.386;2023-04-21T01:51:45;21.87;;;14.23;;
18789;SDS011;9523;42.650;23.386;2023-04-21T01:54:12;19.03;;;12.93;;
18789;SDS011;9523;42.650;23.386;2023-04-21T01:56:41;20.87;;;13.27;;
18789;SDS011;9523;42.650;23.386;2023-04-21T01:59:08;17.83;;;11.87;;
18789;SDS011;9523;42.650;23.386;2023-04-21T02:01:35;18.93;;;12.37;;
18789;SDS011;9523;42.650;23.386;2023-04-21T02:04:01;16.33;;;11.77;;
18789;SDS011;9523;42.650;23.386;2023-04-21T02:06:28;17.43;;;11.70;;
18789;SDS011;9523;42.650;23.386;2023-04-21T02:08:56;17.17;;;11.07;;
18789;SDS011;9523;42.650;23.386;2023-04-21T02:11:23;14.40;;;10.17;;
18789;SDS011;9523;42.650;23.386;2023-04-21T02:13:52;15.93;;;10.30;;
18789;SDS011;9523;42.650;23.386;2023-04-21T02:16:19;14.87;;;9.77;;
18789;SDS011;9523;42.650;23.386;2023-04-21T02:18:50;11.77;;;8.60;;
18789;SDS011;9523;42.650;23.386;2023-04-21T02:21:18;15.07;;;8.77;;
18789;SDS011;9523;42.650;23.386;2023-04-21T02:23:45;12.67;;;9.20;;
18789;SDS011;9523;42.650;23.386;2023-04-21T02:26:12;16.10;;;8.83;;
18789;SDS011;9523;42.650;23.386;2023-04-21T02:28:39;11.97;;;8.50;;
18789;SDS011;9523;42.650;23.386;2023-04-21T02:31:07;12.30;;;7.63;;
18789;SDS011;9523;42.650;23.386;2023-04-21T02:33:34;12.17;;;8.20;;
18789;SDS011;9523;42.650;23.386;2023-04-21T02:36:01;9.10;;;7.10;;
18789;SDS011;9523;42.650;23.386;2023-04-21T02:38:28;9.33;;;7.17;;
18789;SDS011;9523;42.650;23.386;2023-04-21T02:40:55;9.53;;;7.13;;
18789;SDS011;9523;42.650;23.386;2023-04-21T02:43:22;8.83;;;7.30;;
18789;SDS011;9523;42.650;23.386;2023-04-21T02:45:49;10.30;;;7.63;;
18789;SDS011;9523;42.650;23.386;2023-04-21T02:48:17;10.30;;;6.83;;
18789;SDS011;9523;42.650;23.386;2023-04-21T02:50:47;11.13;;;7.50;;
18789;SDS011;9523;42.650;23.386;2023-04-21T02:53:14;11.03;;;7.43;;
18789;SDS011;9523;42.650;23.386;2023-04-21T02:55:41;10.47;;;8.10;;
18789;SDS011;9523;42.650;23.386;2023-04-21T02:58:08;15.40;;;10.73;;
18789;SDS011;9523;42.650;23.386;2023-04-21T03:00:35;21.73;;;13.47;;
18789;SDS011;9523;42.650;23.386;2023-04-21T03:03:02;21.00;;;12.90;;
18789;SDS011;9523;42.650;23.386;2023-04-21T03:05:30;21.17;;;13.73;;
18789;SDS011;9523;42.650;23.386;2023-04-21T03:07:57;19.13;;;13.73;;
18789;SDS011;9523;42.650;23.386;2023-04-21T03:10:24;23.73;;;14.23;;
18789;SDS011;9523;42.650;23.386;2023-04-21T03:12:51;20.57;;;13.30;;
18789;SDS011;9523;42.650;23.386;2023-04-21T03:15:18;19.93;;;13.57;;
18789;SDS011;9523;42.650;23.386;2023-04-21T03:17:45;17.30;;;11.60;;
18789;SDS011;9523;42.650;23.386;2023-04-21T03:20:12;19.27;;;12.00;;
18789;SDS011;9523;42.650;23.386;2023-04-21T03:22:41;17.83;;;9.90;;
18789;SDS011;9523;42.650;23.386;2023-04-21T03:25:08;19.00;;;12.43;;
18789;SDS011;9523;42.650;23.386;2023-04-21T03:27:36;19.73;;;13.37;;
18789;SDS011;9523;42.650;23.386;2023-04-21T03:30:03;22.13;;;14.40;;
18789;SDS011;9523;42.650;23.386;2023-04-21T03:32:30;23.00;;;15.60;;
18789;SDS011;9523;42.650;23.386;2023-04-21T03:34:57;21.60;;;14.57;;
18789;SDS011;9523;42.650;23.386;2023-04-21T03:37:24;25.07;;;15.70;;
18789;SDS011;9523;42.650;23.386;2023-04-21T03:39:53;24.10;;;15.10;;
18789;SDS011;9523;42.650;23.386;2023-04-21T03:42:20;23.90;;;15.20;;
18789;SDS011;9523;42.650;23.386;2023-04-21T03:44:46;26.43;;;15.30;;
18789;SDS011;9523;42.650;23.386;2023-04-21T03:47:15;24.63;;;15.47;;
18789;SDS011;9523;42.650;23.386;2023-04-21T03:49:42;21.97;;;16.10;;
18789;SDS011;9523;42.650;23.386;2023-04-21T03:52:09;22.40;;;14.70;;
18789;SDS011;9523;42.650;23.386;2023-04-21T03:54:36;25.83;;;15.03;;
18789;SDS011;9523;42.650;23.386;2023-04-21T03:57:04;23.80;;;15.47;;
18789;SDS011;9523;42.650;23.386;2023-04-21T03:59:31;23.40;;;14.57;;
18789;SDS011;9523;42.650;23.386;2023-04-21T04:01:58;20.30;;;14.53;;
18789;SDS011;9523;42.650;23.386;2023-04-21T04:04:25;21.60;;;14.77;;
18789;SDS011;9523;42.650;23.386;2023-04-21T04:06:51;18.17;;;13.83;;
18789;SDS011;9523;42.650;23.386;2023-04-21T04:09:18;28.27;;;15.57;;
18789;SDS011;9523;42.650;23.386;2023-04-21T04:11:45;22.93;;;14.37;;
18789;SDS011;9523;42.650;23.386;2023-04-21T04:14:14;26.23;;;15.30;;
18789;SDS011;9523;42.650;23.386;2023-04-21T04:16:41;22.60;;;14.87;;
18789;SDS011;9523;42.650;23.386;2023-04-21T04:19:08;25.63;;;15.73;;
18789;SDS011;9523;42.650;23.386;2023-04-21T04:21:35;20.60;;;13.83;;
18789;SDS011;9523;42.650;23.386;2023-04-21T04:24:03;18.97;;;12.40;;
18789;SDS011;9523;42.650;23.386;2023-04-21T04:26:30;18.80;;;11.63;;
18789;SDS011;9523;42.650;23.386;2023-04-21T04:28:59;16.87;;;11.83;;
18789;SDS011;9523;42.650;23.386;2023-04-21T04:31:28;16.60;;;11.47;;
18789;SDS011;9523;42.650;23.386;2023-04-21T04:33:55;18.60;;;12.00;;
18789;SDS011;9523;42.650;23.386;2023-04-21T04:36:22;20.17;;;12.60;;
18789;SDS011;9523;42.650;23.386;2023-04-21T04:38:49;16.27;;;11.00;;
18789;SDS011;9523;42.650;23.386;2023-04-21T04:41:16;19.87;;;11.60;;
18789;SDS011;9523;42.650;23.386;2023-04-21T04:43:43;16.33;;;11.53;;
18789;SDS011;9523;42.650;23.386;2023-04-21T04:46:10;21.40;;;14.93;;
18789;SDS011;9523;42.650;23.386;2023-04-21T04:48:39;29.00;;;17.40;;
18789;SDS011;9523;42.650;23.386;2023-04-21T04:51:06;28.47;;;16.80;;
18789;SDS011;9523;42.650;23.386;2023-04-21T04:53:33;25.83;;;17.33;;
18789;SDS011;9523;42.650;23.386;2023-04-21T04:56:00;29.10;;;17.17;;
18789;SDS011;9523;42.650;23.386;2023-04-21T04:58:27;29.63;;;18.03;;
18789;SDS011;9523;42.650;23.386;2023-04-21T05:00:54;28.37;;;16.33;;
18789;SDS011;9523;42.650;23.386;2023-04-21T05:03:21;27.00;;;15.30;;
18789;SDS011;9523;42.650;23.386;2023-04-21T05:05:49;35.13;;;18.63;;
18789;SDS011;9523;42.650;23.386;2023-04-21T05:08:16;31.40;;;18.90;;
18789;SDS011;9523;42.650;23.386;2023-04-21T05:10:44;30.33;;;16.90;;
18789;SDS011;9523;42.650;23.386;2023-04-21T05:13:11;28.27;;;16.70;;
18789;SDS011;9523;42.650;23.386;2023-04-21T05:15:37;20.97;;;14.60;;
18789;SDS011;9523;42.650;23.386;2023-04-21T05:18:04;26.67;;;14.30;;
18789;SDS011;9523;42.650;23.386;2023-04-21T05:20:31;19.63;;;13.30;;
18789;SDS011;9523;42.650;23.386;2023-04-21T05:23:02;20.03;;;13.77;;
18789;SDS011;9523;42.650;23.386;2023-04-21T05:25:28;21.73;;;13.60;;
18789;SDS011;9523;42.650;23.386;2023-04-21T05:27:55;19.57;;;13.80;;
18789;SDS011;9523;42.650;23.386;2023-04-21T05:30:22;23.70;;;14.60;;
18789;SDS011;9523;42.650;23.386;2023-04-21T05:32:49;20.37;;;14.13;;
18789;SDS011;9523;42.650;23.386;2023-04-21T05:35:16;26.57;;;14.50;;
18789;SDS011;9523;42.650;23.386;2023-04-21T05:37:46;24.63;;;14.50;;
18789;SDS011;9523;42.650;23.386;2023-04-21T05:40:14;22.77;;;13.90;;
18789;SDS011;9523;42.650;23.386;2023-04-21T05:42:41;24.83;;;14.33;;
18789;SDS011;9523;42.650;23.386;2023-04-21T05:45:08;21.97;;;13.70;;
18789;SDS011;9523;42.650;23.386;2023-04-21T05:47:35;25.87;;;13.67;;
18789;SDS011;9523;42.650;23.386;2023-04-21T05:50:03;24.87;;;15.23;;
18789;SDS011;9523;42.650;23.386;2023-04-21T05:52:30;22.07;;;14.37;;
18789;SDS011;9523;42.650;23.386;2023-04-21T05:54:59;21.63;;;14.57;;
18789;SDS011;9523;42.650;23.386;2023-04-21T05:57:27;22.70;;;12.77;;
18789;SDS011;9523;42.650;23.386;2023-04-21T05:59:54;20.90;;;12.13;;
18789;SDS011;9523;42.650;23.386;2023-04-21T06:02:21;15.57;;;9.70;;
18789;SDS011;9523;42.650;23.386;2023-04-21T06:04:48;12.17;;;8.97;;
18789;SDS011;9523;42.650;23.386;2023-04-21T06:07:16;14.47;;;9.07;;
18789;SDS011;9523;42.650;23.386;2023-04-21T06:09:43;14.57;;;8.87;;
18789;SDS011;9523;42.650;23.386;2023-04-21T06:12:10;12.63;;;8.40;;
18789;SDS011;9523;42.650;23.386;2023-04-21T06:14:38;13.50;;;8.03;;
18789;SDS011;9523;42.650;23.386;2023-04-21T06:17:05;12.27;;;7.90;;
18789;SDS011;9523;42.650;23.386;2023-04-21T06:19:35;11.97;;;8.27;;
18789;SDS011;9523;42.650;23.386;2023-04-21T06:22:02;11.07;;;8.10;;
18789;SDS011;9523;42.650;23.386;2023-04-21T06:24:30;13.53;;;8.20;;
18789;SDS011;9523;42.650;23.386;2023-04-21T06:26:57;22.23;;;10.63;;
18789;SDS011;9523;42.650;23.386;2023-04-21T06:29:25;12.33;;;8.40;;
18789;SDS011;9523;42.650;23.386;2023-04-21T06:31:54;14.10;;;8.47;;
18789;SDS011;9523;42.650;23.386;2023-04-21T06:34:21;12.43;;;8.23;;
18789;SDS011;9523;42.650;23.386;2023-04-21T06:36:50;10.90;;;8.10;;
18789;SDS011;9523;42.650;23.386;2023-04-21T06:39:17;13.30;;;8.73;;
18789;SDS011;9523;42.650;23.386;2023-04-21T06:41:44;11.03;;;7.97;;
18789;SDS011;9523;42.650;23.386;2023-04-21T06:44:11;11.30;;;8.47;;
18789;SDS011;9523;42.650;23.386;2023-04-21T06:46:39;13.17;;;8.67;;
18789;SDS011;9523;42.650;23.386;2023-04-21T06:49:07;10.87;;;8.27;;
18789;SDS011;9523;42.650;23.386;2023-04-21T06:51:34;12.20;;;8.13;;
18789;SDS011;9523;42.650;23.386;2023-04-21T06:54:02;12.83;;;8.80;;
18789;SDS011;9523;42.650;23.386;2023-04-21T06:56:30;10.70;;;8.00;;
18789;SDS011;9523;42.650;23.386;2023-04-21T06:58:57;14.30;;;8.53;;
18789;SDS011;9523;42.650;23.386;2023-04-21T07:01:25;14.37;;;8.23;;
18789;SDS011;9523;42.650;23.386;2023-04-21T07:03:52;13.33;;;7.83;;
18789;SDS011;9523;42.650;23.386;2023-04-21T07:06:21;10.73;;;8.13;;
18789;SDS011;9523;42.650;23.386;2023-04-21T07:08:50;11.93;;;8.27;;
18789;SDS011;9523;42.650;23.386;2023-04-21T07:11:17;10.17;;;7.77;;
18789;SDS011;9523;42.650;23.386;2023-04-21T07:13:45;10.67;;;8.13;;
18789;SDS011;9523;42.650;23.386;2023-04-21T07:16:15;10.60;;;7.73;;
18789;SDS011;9523;42.650;23.386;2023-04-21T07:18:42;11.53;;;8.40;;
18789;SDS011;9523;42.650;23.386;2023-04-21T07:21:09;10.03;;;7.70;;
18789;SDS011;9523;42.650;23.386;2023-04-21T07:23:40;12.07;;;7.90;;
18789;SDS011;9523;42.650;23.386;2023-04-21T07:26:07;8.47;;;6.83;;
18789;SDS011;9523;42.650;23.386;2023-04-21T07:28:38;10.27;;;7.50;;
18789;SDS011;9523;42.650;23.386;2023-04-21T07:31:05;9.00;;;6.80;;
18789;SDS011;9523;42.650;23.386;2023-04-21T07:33:32;10.47;;;7.43;;
18789;SDS011;9523;42.650;23.386;2023-04-21T07:35:59;12.00;;;7.47;;
18789;SDS011;9523;42.650;23.386;2023-04-21T07:38:26;9.23;;;6.97;;
18789;SDS011;9523;42.650;23.386;2023-04-21T07:40:55;11.97;;;7.70;;
18789;SDS011;9523;42.650;23.386;2023-04-21T07:43:22;9.13;;;6.53;;
18789;SDS011;9523;42.650;23.386;2023-04-21T07:45:49;10.50;;;7.07;;
18789;SDS011;9523;42.650;23.386;2023-04-21T07:48:16;10.23;;;6.77;;
18789;SDS011;9523;42.650;23.386;2023-04-21T07:50:43;8.77;;;6.40;;
18789;SDS011;9523;42.650;23.386;2023-04-21T07:53:10;7.40;;;6.03;;
18789;SDS011;9523;42.650;23.386;2023-04-21T07:55:37;8.13;;;5.93;;
18789;SDS011;9523;42.650;23.386;2023-04-21T07:58:06;9.03;;;6.30;;
18789;SDS011;9523;42.650;23.386;2023-04-21T08:00:36;8.47;;;5.83;;
18789;SDS011;9523;42.650;23.386;2023-04-21T08:03:03;9.50;;;5.80;;
18789;SDS011;9523;42.650;23.386;2023-04-21T08:05:30;9.57;;;5.90;;
18789;SDS011;9523;42.650;23.386;2023-04-21T08:07:57;7.47;;;5.47;;
18789;SDS011;9523;42.650;23.386;2023-04-21T08:10:24;8.03;;;5.60;;
18789;SDS011;9523;42.650;23.386;2023-04-21T08:12:51;8.33;;;5.87;;
18789;SDS011;9523;42.650;23.386;2023-04-21T08:15:19;8.93;;;5.77;;
18789;SDS011;9523;42.650;23.386;2023-04-21T08:17:52;9.93;;;6.17;;
18789;SDS011;9523;42.650;23.386;2023-04-21T08:20:19;9.07;;;5.73;;
18789;SDS011;9523;42.650;23.386;2023-04-21T08:22:46;8.20;;;6.13;;
18789;SDS011;9523;42.650;23.386;2023-04-21T08:25:13;9.83;;;6.07;;
18789;SDS011;9523;42.650;23.386;2023-04-21T08:27:40;7.67;;;5.67;;
18789;SDS011;9523;42.650;23.386;2023-04-21T08:30:08;10.80;;;6.20;;
18789;SDS011;9523;42.650;23.386;2023-04-21T08:32:42;9.70;;;6.23;;
18789;SDS011;9523;42.650;23.386;2023-04-21T08:35:09;8.97;;;6.80;;
18789;SDS011;9523;42.650;23.386;2023-04-21T08:37:37;7.83;;;5.80;;
18789;SDS011;9523;42.650;23.386;2023-04-21T08:40:07;7.47;;;5.50;;
18789;SDS011;9523;42.650;23.386;2023-04-21T08:42:34;10.27;;;6.20;;
18789;SDS011;9523;42.650;23.386;2023-04-21T08:45:06;7.23;;;4.70;;
18789;SDS011;9523;42.650;23.386;2023-04-21T08:47:34;8.03;;;4.40;;
18789;SDS011;9523;42.650;23.386;2023-04-21T08:50:05;9.67;;;7.03;;
18789;SDS011;9523;42.650;23.386;2023-04-21T08:52:37;14.00;;;9.23;;
18789;SDS011;9523;42.650;23.386;2023-04-21T08:55:07;7.57;;;5.57;;
18789;SDS011;9523;42.650;23.386;2023-04-21T08:57:37;10.77;;;6.90;;
18789;SDS011;9523;42.650;23.386;2023-04-21T09:00:05;9.70;;;5.57;;
18789;SDS011;9523;42.650;23.386;2023-04-21T09:02:32;7.83;;;4.97;;
18789;SDS011;9523;42.650;23.386;2023-04-21T09:04:59;6.23;;;4.63;;
18789;SDS011;9523;42.650;23.386;2023-04-21T09:07:32;6.10;;;5.13;;
18789;SDS011;9523;42.650;23.386;2023-04-21T09:10:00;5.63;;;4.70;;
18789;SDS011;9523;42.650;23.386;2023-04-21T09:12:27;7.67;;;4.93;;
18789;SDS011;9523;42.650;23.386;2023-04-21T09:14:55;6.43;;;4.70;;
18789;SDS011;9523;42.650;23.386;2023-04-21T09:17:26;7.27;;;4.83;;
18789;SDS011;9523;42.650;23.386;2023-04-21T09:19:58;11.87;;;5.07;;
18789;SDS011;9523;42.650;23.386;2023-04-21T09:22:40;7.60;;;4.90;;
18789;SDS011;9523;42.650;23.386;2023-04-21T09:25:07;9.53;;;4.57;;
18789;SDS011;9523;42.650;23.386;2023-04-21T09:27:35;6.43;;;4.67;;
18789;SDS011;9523;42.650;23.386;2023-04-21T09:30:02;7.07;;;4.23;;
18789;SDS011;9523;42.650;23.386;2023-04-21T09:32:34;6.23;;;4.53;;
18789;SDS011;9523;42.650;23.386;2023-04-21T09:35:03;6.73;;;4.70;;
18789;SDS011;9523;42.650;23.386;2023-04-21T09:37:31;5.70;;;4.70;;
18789;SDS011;9523;42.650;23.386;2023-04-21T09:39:59;7.30;;;4.73;;
18789;SDS011;9523;42.650;23.386;2023-04-21T09:42:30;7.27;;;4.53;;
18789;SDS011;9523;42.650;23.386;2023-04-21T09:44:58;7.17;;;4.30;;
18789;SDS011;9523;42.650;23.386;2023-04-21T09:47:26;5.97;;;4.90;;
18789;SDS011;9523;42.650;23.386;2023-04-21T09:49:54;5.07;;;4.27;;
18789;SDS011;9523;42.650;23.386;2023-04-21T09:52:26;4.20;;;3.47;;
18789;SDS011;9523;42.650;23.386;2023-04-21T09:54:59;5.07;;;3.90;;
18789;SDS011;9523;42.650;23.386;2023-04-21T09:57:36;5.87;;;3.90;;
18789;SDS011;9523;42.650;23.386;2023-04-21T10:00:08;4.90;;;3.80;;
18789;SDS011;9523;42.650;23.386;2023-04-21T10:02:37;5.60;;;3.90;;
18789;SDS011;9523;42.650;23.386;2023-04-21T10:05:08;4.73;;;4.07;;
18789;SDS011;9523;42.650;23.386;2023-04-21T10:07:38;6.13;;;3.90;;
18789;SDS011;9523;42.650;23.386;2023-04-21T10:10:08;7.43;;;4.00;;
18789;SDS011;9523;42.650;23.386;2023-04-21T10:12:41;3.97;;;3.50;;
18789;SDS011;9523;42.650;23.386;2023-04-21T10:18:09;5.90;;;4.00;;
18789;SDS011;9523;42.650;23.386;2023-04-21T10:20:49;5.20;;;3.80;;
18789;SDS011;9523;42.650;23.386;2023-04-21T10:23:26;6.90;;;4.37;;
18789;SDS011;9523;42.650;23.386;2023-04-21T10:26:03;6.20;;;3.80;;
18789;SDS011;9523;42.650;23.386;2023-04-21T10:28:40;5.33;;;4.23;;
18789;SDS011;9523;42.650;23.386;2023-04-21T10:31:19;7.53;;;5.10;;
18789;SDS011;9523;42.650;23.386;2023-04-21T10:39:41;6.33;;;5.03;;
18789;SDS011;9523;42.650;23.386;2023-04-21T10:42:24;6.53;;;4.37;;
18789;SDS011;9523;42.650;23.386;2023-04-21T10:45:05;5.80;;;4.37;;
18789;SDS011;9523;42.650;23.386;2023-04-21T10:47:40;10.57;;;4.90;;
18789;SDS011;9523;42.650;23.386;2023-04-21T10:50:16;7.60;;;4.70;;
18789;SDS011;9523;42.650;23.386;2023-04-21T10:52:51;8.53;;;4.90;;
18789;SDS011;9523;42.650;23.386;2023-04-21T10:55:19;8.02;;;4.53;;
18789;SDS011;9523;42.650;23.386;2023-04-21T10:57:49;8.95;;;4.93;;
18789;SDS011;9523;42.650;23.386;2023-04-21T11:00:17;8.45;;;4.65;;
18789;SDS011;9523;42.650;23.386;2023-04-21T11:02:58;8.57;;;4.63;;
18789;SDS011;9523;42.650;23.386;2023-04-21T11:05:36;10.27;;;4.77;;
18789;SDS011;9523;42.650;23.386;2023-04-21T11:08:08;19.93;;;10.73;;
18789;SDS011;9523;42.650;23.386;2023-04-21T11:13:26;6.30;;;3.83;;
18789;SDS011;9523;42.650;23.386;2023-04-21T11:16:02;6.67;;;4.23;;
18789;SDS011;9523;42.650;23.386;2023-04-21T11:18:32;8.40;;;5.10;;
18789;SDS011;9523;42.650;23.386;2023-04-21T11:21:11;13.70;;;8.37;;
18789;SDS011;9523;42.650;23.386;2023-04-21T11:23:51;9.07;;;6.20;;
18789;SDS011;9523;42.650;23.386;2023-04-21T11:26:28;7.57;;;4.60;;
18789;SDS011;9523;42.650;23.386;2023-04-21T11:28:59;8.37;;;5.43;;
18789;SDS011;9523;42.650;23.386;2023-04-21T11:31:30;8.37;;;4.90;;
18789;SDS011;9523;42.650;23.386;2023-04-21T11:33:57;7.87;;;5.37;;
18789;SDS011;9523;42.650;23.386;2023-04-21T11:36:25;10.27;;;6.00;;
18789;SDS011;9523;42.650;23.386;2023-04-21T11:38:55;5.90;;;4.80;;
18789;SDS011;9523;42.650;23.386;2023-04-21T11:41:25;6.50;;;4.15;;
18789;SDS011;9523;42.650;23.386;2023-04-21T11:43:54;6.32;;;4.32;;
18789;SDS011;9523;42.650;23.386;2023-04-21T11:46:23;7.10;;;4.70;;
18789;SDS011;9523;42.650;23.386;2023-04-21T11:48:58;6.97;;;4.60;;
18789;SDS011;9523;42.650;23.386;2023-04-21T11:51:25;7.63;;;4.95;;
18789;SDS011;9523;42.650;23.386;2023-04-21T11:53:53;8.95;;;5.60;;
18789;SDS011;9523;42.650;23.386;2023-04-21T11:56:20;21.70;;;13.03;;
18789;SDS011;9523;42.650;23.386;2023-04-21T11:58:50;16.63;;;10.00;;
18789;SDS011;9523;42.650;23.386;2023-04-21T12:01:17;16.03;;;9.37;;
18789;SDS011;9523;42.650;23.386;2023-04-21T12:03:53;4.67;;;4.00;;
18789;SDS011;9523;42.650;23.386;2023-04-21T12:06:24;38.00;;;20.30;;
18789;SDS011;9523;42.650;23.386;2023-04-21T12:08:56;24.00;;;13.13;;
18789;SDS011;9523;42.650;23.386;2023-04-21T12:11:26;11.70;;;5.80;;
18789;SDS011;9523;42.650;23.386;2023-04-21T12:13:55;18.23;;;10.20;;
18789;SDS011;9523;42.650;23.386;2023-04-21T12:16:22;8.90;;;4.20;;
18789;SDS011;9523;42.650;23.386;2023-04-21T12:18:51;7.93;;;4.70;;
18789;SDS011;9523;42.650;23.386;2023-04-21T12:21:19;5.70;;;3.57;;
18789;SDS011;9523;42.650;23.386;2023-04-21T12:23:46;3.77;;;3.30;;
18789;SDS011;9523;42.650;23.386;2023-04-21T12:26:13;7.63;;;4.47;;
18789;SDS011;9523;42.650;23.386;2023-04-21T12:28:40;5.78;;;3.00;;
18789;SDS011;9523;42.650;23.386;2023-04-21T12:31:07;6.70;;;3.13;;
18789;SDS011;9523;42.650;23.386;2023-04-21T12:33:34;6.22;;;2.88;;
18789;SDS011;9523;42.650;23.386;2023-04-21T12:36:01;3.80;;;2.60;;
18789;SDS011;9523;42.650;23.386;2023-04-21T12:38:29;5.43;;;3.15;;
18789;SDS011;9523;42.650;23.386;2023-04-21T12:40:57;5.65;;;3.10;;
18789;SDS011;9523;42.650;23.386;2023-04-21T12:43:24;5.60;;;3.33;;
18789;SDS011;9523;42.650;23.386;2023-04-21T12:45:51;7.70;;;4.10;;
18789;SDS011;9523;42.650;23.386;2023-04-21T12:48:18;7.20;;;3.67;;
18789;SDS011;9523;42.650;23.386;2023-04-21T12:50:45;10.52;;;7.10;;
18789;SDS011;9523;42.650;23.386;2023-04-21T12:53:12;4.45;;;4.05;;
18789;SDS011;9523;42.650;23.386;2023-04-21T12:55:40;7.88;;;4.03;;
18789;SDS011;9523;42.650;23.386;2023-04-21T12:58:07;6.30;;;4.00;;
18789;SDS011;9523;42.650;23.386;2023-04-21T13:00:36;12.25;;;5.78;;
18789;SDS011;9523;42.650;23.386;2023-04-21T13:03:04;11.10;;;5.93;;
18789;SDS011;9523;42.650;23.386;2023-04-21T13:05:31;16.80;;;10.48;;
18789;SDS011;9523;42.650;23.386;2023-04-21T13:07:58;7.53;;;5.05;;
18789;SDS011;9523;42.650;23.386;2023-04-21T13:10:25;24.30;;;13.23;;
18789;SDS011;9523;42.650;23.386;2023-04-21T13:12:54;7.47;;;4.00;;
18789;SDS011;9523;42.650;23.386;2023-04-21T13:15:20;14.95;;;8.52;;
18789;SDS011;9523;42.650;23.386;2023-04-21T13:17:47;8.43;;;4.32;;
18789;SDS011;9523;42.650;23.386;2023-04-21T13:20:14;12.57;;;7.57;;
18789;SDS011;9523;42.650;23.386;2023-04-21T13:22:43;5.63;;;4.10;;
18789;SDS011;9523;42.650;23.386;2023-04-21T13:25:10;9.85;;;5.88;;
18789;SDS011;9523;42.650;23.386;2023-04-21T13:27:37;17.17;;;9.52;;
18789;SDS011;9523;42.650;23.386;2023-04-21T13:30:07;44.85;;;23.85;;
18789;SDS011;9523;42.650;23.386;2023-04-21T13:32:38;80.47;;;42.95;;
18789;SDS011;9523;42.650;23.386;2023-04-21T13:35:06;16.83;;;9.82;;
18789;SDS011;9523;42.650;23.386;2023-04-21T13:37:34;16.05;;;7.70;;
18789;SDS011;9523;42.650;23.386;2023-04-21T13:40:02;8.10;;;6.10;;
18789;SDS011;9523;42.650;23.386;2023-04-21T13:42:31;20.75;;;11.75;;
18789;SDS011;9523;42.650;23.386;2023-04-21T13:44:58;44.13;;;32.00;;
18789;SDS011;9523;42.650;23.386;2023-04-21T13:47:28;63.53;;;35.20;;
18789;SDS011;9523;42.650;23.386;2023-04-21T13:49:55;12.18;;;7.78;;
18789;SDS011;9523;42.650;23.386;2023-04-21T13:52:22;7.78;;;4.45;;
18789;SDS011;9523;42.650;23.386;2023-04-21T13:54:50;33.53;;;18.98;;
18789;SDS011;9523;42.650;23.386;2023-04-21T13:57:18;14.00;;;8.68;;
18789;SDS011;9523;42.650;23.386;2023-04-21T13:59:45;11.30;;;6.82;;
18789;SDS011;9523;42.650;23.386;2023-04-21T14:02:12;8.50;;;4.55;;
18789;SDS011;9523;42.650;23.386;2023-04-21T14:04:41;7.47;;;5.30;;
18789;SDS011;9523;42.650;23.386;2023-04-21T14:07:07;18.00;;;9.43;;
18789;SDS011;9523;42.650;23.386;2023-04-21T14:09:35;13.70;;;8.43;;
18789;SDS011;9523;42.650;23.386;2023-04-21T14:12:02;9.80;;;5.50;;
18789;SDS011;9523;42.650;23.386;2023-04-21T14:14:29;11.65;;;6.00;;
18789;SDS011;9523;42.650;23.386;2023-04-21T14:16:56;8.18;;;4.60;;
18789;SDS011;9523;42.650;23.386;2023-04-21T14:19:23;6.97;;;4.60;;
18789;SDS011;9523;42.650;23.386;2023-04-21T14:21:52;7.55;;;5.22;;
18789;SDS011;9523;42.650;23.386;2023-04-21T14:24:19;9.32;;;4.53;;
18789;SDS011;9523;42.650;23.386;2023-04-21T14:26:46;8.77;;;4.72;;
18789;SDS011;9523;42.650;23.386;2023-04-21T14:29:13;11.95;;;5.60;;
18789;SDS011;9523;42.650;23.386;2023-04-21T14:31:41;7.93;;;5.53;;
18789;SDS011;9523;42.650;23.386;2023-04-21T14:34:08;7.13;;;4.40;;
18789;SDS011;9523;42.650;23.386;2023-04-21T14:36:35;9.15;;;4.63;;
18789;SDS011;9523;42.650;23.386;2023-04-21T14:39:04;8.07;;;5.20;;
18789;SDS011;9523;42.650;23.386;2023-04-21T14:41:30;6.57;;;4.68;;
18789;SDS011;9523;42.650;23.386;2023-04-21T14:43:58;8.43;;;5.18;;
18789;SDS011;9523;42.650;23.386;2023-04-21T14:46:25;40.75;;;23.45;;
18789;SDS011;9523;42.650;23.386;2023-04-21T14:48:53;25.83;;;12.85;;
18789;SDS011;9523;42.650;23.386;2023-04-21T14:51:21;18.92;;;9.90;;